createdAt,value
2023-04-24T00:01:22.208Z,98234.41
2023-04-24T00:03:53.904Z,98240.94
2023-04-24T00:06:26.275Z,98236.03
2023-04-24T00:08:57.809Z,98241.25
2023-04-24T00:11:29.325Z,98246.16
2023-04-24T00:14:01.354Z,98246.25
2023-04-24T00:16:32.246Z,98250.47
2023-04-24T00:19:03.430Z,98242.66
2023-04-24T00:21:35.711Z,98253.53
2023-04-24T00:24:08.773Z,98249.88
2023-04-24T00:26:39.639Z,98256.06
2023-04-24T00:29:43.008Z,98258.00
2023-04-24T00:32:14.136Z,98261.97
2023-04-24T00:34:46.052Z,98270.75
2023-04-24T00:37:16.673Z,98275.91
2023-04-24T00:39:49.069Z,98275.13
2023-04-24T00:42:20.286Z,98273.75
2023-04-24T00:44:52.319Z,98285.84
2023-04-24T00:47:24.238Z,98285.56
2023-04-24T00:49:56.093Z,98286.84
2023-04-24T00:52:26.756Z,98291.00
2023-04-24T00:54:58.669Z,98288.31
2023-04-24T00:57:29.952Z,98290.50
2023-04-24T01:00:02.429Z,98282.91
2023-04-24T01:02:33.683Z,98293.84
2023-04-24T01:05:06.087Z,98294.66
2023-04-24T01:07:39.148Z,98297.56
2023-04-24T01:10:12.458Z,98304.03
2023-04-24T01:12:44.167Z,98299.66
2023-04-24T01:15:16.141Z,98299.50
2023-04-24T01:17:48.140Z,98303.44
2023-04-24T01:20:21.116Z,98313.63
2023-04-24T01:22:52.869Z,98314.22
2023-04-24T01:25:27.594Z,98320.56
2023-04-24T01:28:01.380Z,98320.56
2023-04-24T01:30:33.995Z,98321.97
2023-04-24T01:33:05.750Z,98317.44
2023-04-24T01:35:39.448Z,98323.97
2023-04-24T01:38:11.293Z,98325.84
2023-04-24T01:40:42.105Z,98325.53
2023-04-24T01:43:14.067Z,98325.81
2023-04-24T01:45:45.451Z,98332.28
2023-04-24T01:48:19.509Z,98332.69
2023-04-24T01:50:50.349Z,98340.13
2023-04-24T01:53:21.432Z,98341.34
2023-04-24T01:55:53.151Z,98340.19
2023-04-24T01:58:25.348Z,98347.31
2023-04-24T02:00:56.441Z,98351.56
2023-04-24T02:03:27.253Z,98354.53
2023-04-24T02:05:59.594Z,98357.25
2023-04-24T02:08:30.535Z,98352.34
2023-04-24T02:11:02.265Z,98359.56
2023-04-24T02:13:34.481Z,98365.81
2023-04-24T02:16:05.696Z,98362.63
2023-04-24T02:18:37.483Z,98357.41
2023-04-24T02:21:12.150Z,98372.28
2023-04-24T02:23:43.964Z,98378.59
2023-04-24T02:26:17.144Z,98380.19
2023-04-24T02:28:48.557Z,98371.75
2023-04-24T02:31:19.761Z,98380.97
2023-04-24T02:33:51.921Z,98376.66
2023-04-24T02:36:23.502Z,98386.78
2023-04-24T02:38:53.229Z,98384.59
2023-04-24T02:41:22.440Z,98388.75
2023-04-24T02:43:51.557Z,98393.56
2023-04-24T02:46:20.932Z,98399.88
2023-04-24T02:48:50.095Z,98394.38
2023-04-24T02:51:19.245Z,98402.97
2023-04-24T02:53:48.275Z,98399.41
2023-04-24T02:56:17.314Z,98405.81
2023-04-24T02:58:46.411Z,98405.84
2023-04-24T03:01:15.665Z,98411.84
2023-04-24T03:03:45.071Z,98411.47
2023-04-24T03:06:14.248Z,98408.03
2023-04-24T03:08:43.482Z,98414.22
2023-04-24T03:11:16.583Z,98411.53
2023-04-24T03:13:45.838Z,98413.50
2023-04-24T03:16:14.847Z,98422.78
2023-04-24T03:18:43.950Z,98418.81
2023-04-24T03:21:15.220Z,98427.28
2023-04-24T03:23:45.152Z,98428.69
2023-04-24T03:26:14.164Z,98430.63
2023-04-24T03:28:53.802Z,98430.53
2023-04-24T03:31:23.304Z,98432.56
2023-04-24T03:33:53.125Z,98434.00
2023-04-24T03:36:22.543Z,98429.44
2023-04-24T03:38:51.641Z,98431.34
2023-04-24T03:41:34.004Z,98429.41
2023-04-24T03:44:16.726Z,98440.72
2023-04-24T03:46:46.098Z,98430.63
2023-04-24T03:49:15.508Z,98440.44
2023-04-24T03:51:46.815Z,98441.19
2023-04-24T03:54:27.506Z,98443.97
2023-04-24T03:56:56.862Z,98441.25
2023-04-24T03:59:28.260Z,98438.19
2023-04-24T04:02:14.788Z,98438.31
2023-04-24T04:04:44.051Z,98431.97
2023-04-24T04:07:14.977Z,98442.50
2023-04-24T04:09:44.608Z,98439.31
2023-04-24T04:12:14.689Z,98437.88
2023-04-24T04:14:44.903Z,98439.63
2023-04-24T04:17:14.221Z,98441.28
2023-04-24T04:19:44.931Z,98445.31
2023-04-24T04:22:14.124Z,98452.91
2023-04-24T04:24:48.323Z,98444.63
2023-04-24T04:27:19.086Z,98451.03
2023-04-24T04:29:55.558Z,98447.25
2023-04-24T04:32:25.341Z,98449.75
2023-04-24T04:34:55.236Z,98440.19
2023-04-24T04:37:27.410Z,98451.72
2023-04-24T04:40:15.010Z,98450.28
2023-04-24T04:42:59.383Z,98444.25
2023-04-24T04:45:32.652Z,98446.28
2023-04-24T04:48:33.509Z,98453.09
2023-04-24T04:51:04.521Z,98450.41
2023-04-24T04:53:33.831Z,98449.53
2023-04-24T04:56:02.758Z,98448.13
2023-04-24T04:58:38.415Z,98458.72
2023-04-24T05:01:11.243Z,98452.38
2023-04-24T05:03:44.293Z,98452.06
2023-04-24T05:06:15.906Z,98461.81
2023-04-24T05:08:46.407Z,98462.44
2023-04-24T05:11:44.227Z,98450.94
2023-04-24T05:14:14.788Z,98461.25
2023-04-24T05:16:45.415Z,98459.97
2023-04-24T05:19:16.893Z,98457.94
2023-04-24T05:21:48.088Z,98465.25
2023-04-24T05:24:17.558Z,98464.00
2023-04-24T05:26:46.518Z,98458.31
2023-04-24T05:29:18.193Z,98473.00
2023-04-24T05:31:47.700Z,98473.31
2023-04-24T05:34:18.857Z,98470.13
2023-04-24T05:36:52.690Z,98472.41
2023-04-24T05:39:22.891Z,98473.38
2023-04-24T05:41:51.926Z,98472.56
2023-04-24T05:44:20.746Z,98474.34
2023-04-24T05:46:50.525Z,98479.13
2023-04-24T05:49:20.326Z,98477.97
2023-04-24T05:51:49.901Z,98470.59
2023-04-24T05:54:20.376Z,98471.94
2023-04-24T05:56:49.283Z,98465.94
2023-04-24T05:59:27.303Z,98471.97
2023-04-24T06:01:56.496Z,98472.69
2023-04-24T06:04:26.825Z,98473.84
2023-04-24T06:06:58.127Z,98471.25
2023-04-24T06:09:28.214Z,98471.31
2023-04-24T06:11:58.701Z,98472.63
2023-04-24T06:14:34.294Z,98471.03
2023-04-24T06:17:19.289Z,98472.56
2023-04-24T06:19:49.487Z,98484.44
2023-04-24T06:22:18.833Z,98471.44
2023-04-24T06:24:49.181Z,98477.91
2023-04-24T06:27:20.051Z,98479.28
2023-04-24T06:29:56.192Z,98482.47
2023-04-24T06:32:27.193Z,98483.63
2023-04-24T06:34:57.172Z,98466.06
2023-04-24T06:37:28.658Z,98476.41
2023-04-24T06:39:57.784Z,98477.28
2023-04-24T06:42:27.011Z,98471.47
2023-04-24T06:44:55.997Z,98477.81
2023-04-24T06:47:25.402Z,98473.22
2023-04-24T06:49:55.732Z,98469.66
2023-04-24T06:52:24.745Z,98473.00
2023-04-24T06:54:53.854Z,98468.44
2023-04-24T06:57:23.518Z,98469.69
2023-04-24T06:59:52.504Z,98474.72
2023-04-24T07:02:22.056Z,98468.03
2023-04-24T07:04:51.392Z,98470.28
2023-04-24T07:07:20.197Z,98469.44
2023-04-24T07:09:50.441Z,98466.75
2023-04-24T07:12:22.128Z,98463.38
2023-04-24T07:14:51.810Z,98459.09
2023-04-24T07:17:20.793Z,98463.81
2023-04-24T07:19:49.872Z,98458.25
2023-04-24T07:22:19.399Z,98455.56
2023-04-24T07:24:48.137Z,98459.53
2023-04-24T07:27:17.420Z,98457.16
2023-04-24T07:29:46.650Z,98459.75
2023-04-24T07:32:16.572Z,98451.06
2023-04-24T07:34:45.556Z,98457.34
2023-04-24T07:37:14.625Z,98451.00
2023-04-24T07:39:43.922Z,98451.69
2023-04-24T07:42:13.342Z,98447.31
2023-04-24T07:44:42.221Z,98450.44
2023-04-24T07:47:11.572Z,98451.53
2023-04-24T07:49:41.159Z,98441.38
2023-04-24T07:52:10.621Z,98436.97
2023-04-24T07:54:39.463Z,98431.31
2023-04-24T07:57:10.283Z,98432.22
2023-04-24T07:59:39.275Z,98413.84
2023-04-24T08:02:11.503Z,98419.41
2023-04-24T08:04:40.682Z,98413.22
2023-04-24T08:07:10.779Z,98404.69
2023-04-24T08:09:39.756Z,98398.06
2023-04-24T08:12:08.857Z,98405.09
2023-04-24T08:14:37.995Z,98407.16
2023-04-24T08:17:07.144Z,98398.38
2023-04-24T08:19:36.871Z,98401.91
2023-04-24T08:22:06.739Z,98399.09
2023-04-24T08:24:36.334Z,98395.47
2023-04-24T08:27:05.124Z,98390.53
2023-04-24T08:29:34.720Z,98385.81
2023-04-24T08:32:03.732Z,98378.66
2023-04-24T08:34:32.862Z,98378.94
2023-04-24T08:37:01.932Z,98385.09
2023-04-24T08:39:31.008Z,98370.34
2023-04-24T08:42:07.369Z,98367.75
2023-04-24T08:44:37.992Z,98359.66
2023-04-24T08:47:08.704Z,98363.97
2023-04-24T08:49:39.587Z,98359.81
2023-04-24T08:52:08.799Z,98356.34
2023-04-24T08:54:38.407Z,98343.09
2023-04-24T08:57:13.588Z,98345.06
2023-04-24T08:59:44.539Z,98350.66
2023-04-24T09:02:16.278Z,98336.88
2023-04-24T09:04:46.697Z,98332.75
2023-04-24T09:07:19.117Z,98332.25
2023-04-24T09:09:48.345Z,98321.59
2023-04-24T09:12:17.390Z,98326.38
2023-04-24T09:14:47.790Z,98324.44
2023-04-24T09:17:16.973Z,98321.22
2023-04-24T09:19:46.666Z,98306.41
2023-04-24T09:22:16.082Z,98314.00
2023-04-24T09:24:45.125Z,98298.00
2023-04-24T09:27:15.069Z,98307.13
2023-04-24T09:29:57.532Z,98302.84
2023-04-24T09:32:27.801Z,98298.06
2023-04-24T09:35:14.680Z,98302.44
2023-04-24T09:37:46.856Z,98297.72
2023-04-24T09:40:19.833Z,98290.09
2023-04-24T09:43:03.206Z,98284.13
2023-04-24T09:45:40.193Z,98276.25
2023-04-24T09:48:12.602Z,98275.59
2023-04-24T09:50:42.315Z,98268.66
2023-04-24T09:53:12.672Z,98267.69
2023-04-24T09:55:47.557Z,98265.50
2023-04-24T09:58:16.752Z,98262.69
2023-04-24T10:00:48.670Z,98260.97
2023-04-24T10:03:20.606Z,98254.00
2023-04-24T10:05:49.962Z,98253.09
2023-04-24T10:08:18.788Z,98256.84
2023-04-24T10:10:48.908Z,98249.94
2023-04-24T10:13:18.295Z,98240.97
2023-04-24T10:15:50.279Z,98242.66
2023-04-24T10:18:20.511Z,98236.16
2023-04-24T10:20:49.951Z,98236.06
2023-04-24T10:23:21.365Z,98226.81
2023-04-24T10:25:51.806Z,98228.47
2023-04-24T10:28:22.829Z,98228.25
2023-04-24T10:30:53.105Z,98224.81
2023-04-24T10:33:22.378Z,98222.50
2023-04-24T10:35:53.288Z,98222.06
2023-04-24T10:38:27.769Z,98225.28
2023-04-24T10:41:21.562Z,98225.28
2023-04-24T10:43:52.887Z,98215.25
2023-04-24T10:46:25.105Z,98219.09
2023-04-24T10:48:57.598Z,98219.41
2023-04-24T10:51:45.303Z,98218.25
2023-04-24T10:54:36.587Z,98207.06
2023-04-24T10:57:27.308Z,98203.44
2023-04-24T11:00:20.579Z,98209.16
2023-04-24T11:02:52.404Z,98196.72
2023-04-24T11:05:22.739Z,98199.41
2023-04-24T11:08:18.029Z,98200.16
2023-04-24T11:10:48.599Z,98208.97
2023-04-24T11:13:24.774Z,98204.47
2023-04-24T11:16:15.971Z,98200.31
2023-04-24T11:18:52.857Z,98198.63
2023-04-24T11:21:23.098Z,98191.00
2023-04-24T11:23:52.683Z,98198.41
2023-04-24T11:26:32.322Z,98200.28
2023-04-24T11:29:10.711Z,98197.81
2023-04-24T11:31:42.106Z,98185.16
2023-04-24T11:34:12.862Z,98191.19
2023-04-24T11:36:42.820Z,98191.50
2023-04-24T11:39:13.098Z,98190.25
2023-04-24T11:41:42.491Z,98179.22
2023-04-24T11:44:13.448Z,98186.41
2023-04-24T11:46:42.807Z,98190.75
2023-04-24T11:49:11.947Z,98180.13
2023-04-24T11:51:52.233Z,98185.16
2023-04-24T11:54:23.490Z,98188.53
2023-04-24T11:56:52.564Z,98186.84
2023-04-24T11:59:21.731Z,98184.09
2023-04-24T12:01:51.812Z,98175.81
2023-04-24T12:04:21.499Z,98181.16
2023-04-24T12:07:03.483Z,98180.63
2023-04-24T12:09:47.511Z,98183.09
2023-04-24T12:12:19.531Z,98183.06
2023-04-24T12:15:11.827Z,98182.03
2023-04-24T12:17:44.388Z,98189.41
2023-04-24T12:20:15.432Z,98182.38
2023-04-24T12:22:50.624Z,98188.84
2023-04-24T12:25:21.333Z,98185.19
2023-04-24T12:28:14.538Z,98190.63
2023-04-24T12:30:47.478Z,98184.19
2023-04-24T12:33:23.902Z,98191.78
2023-04-24T12:35:56.624Z,98184.28
2023-04-24T12:38:29.092Z,98195.56
2023-04-24T12:41:14.156Z,98184.63
2023-04-24T12:43:57.510Z,98193.41
2023-04-24T12:46:27.311Z,98178.53
2023-04-24T12:48:56.540Z,98181.94
2023-04-24T12:51:26.235Z,98181.22
2023-04-24T12:53:56.501Z,98181.66
2023-04-24T12:56:26.484Z,98185.38
2023-04-24T12:58:55.408Z,98178.66
2023-04-24T13:01:24.556Z,98185.53
2023-04-24T13:03:54.082Z,98183.06
2023-04-24T13:06:23.218Z,98179.84
2023-04-24T13:08:53.439Z,98188.13
2023-04-24T13:11:24.116Z,98188.41
2023-04-24T13:13:55.316Z,98195.13
2023-04-24T13:16:25.518Z,98197.63
2023-04-24T13:18:55.135Z,98199.19
2023-04-24T13:21:24.217Z,98202.00
2023-04-24T13:23:53.778Z,98204.66
2023-04-24T13:26:23.387Z,98201.03
2023-04-24T13:28:52.613Z,98205.25
2023-04-24T13:31:21.564Z,98207.72
2023-04-24T13:33:51.335Z,98207.44
2023-04-24T13:36:20.497Z,98209.69
2023-04-24T13:38:50.017Z,98209.41
2023-04-24T13:41:18.968Z,98214.28
2023-04-24T13:43:48.139Z,98215.81
2023-04-24T13:46:17.322Z,98222.94
2023-04-24T13:48:46.659Z,98218.06
2023-04-24T13:51:15.776Z,98220.53
2023-04-24T13:53:44.939Z,98224.94
2023-04-24T13:56:15.915Z,98225.69
2023-04-24T13:58:44.748Z,98229.13
2023-04-24T14:01:15.399Z,98231.94
2023-04-24T14:03:48.433Z,98217.13
2023-04-24T14:06:17.962Z,98220.59
2023-04-24T14:08:47.005Z,98228.22
2023-04-24T14:11:17.226Z,98227.81
2023-04-24T14:13:47.467Z,98226.56
2023-04-24T14:16:16.913Z,98230.66
2023-04-24T14:18:45.952Z,98225.19
2023-04-24T14:21:15.094Z,98236.47
2023-04-24T14:23:44.304Z,98231.03
2023-04-24T14:26:13.812Z,98237.53
2023-04-24T14:28:42.885Z,98241.69
2023-04-24T14:31:12.114Z,98240.69
2023-04-24T14:33:41.215Z,98241.06
2023-04-24T14:36:10.270Z,98244.22
2023-04-24T14:38:39.238Z,98252.44
2023-04-24T14:41:13.932Z,98244.66
2023-04-24T14:47:57.502Z,98264.13
2023-04-24T14:50:29.915Z,98268.69
2023-04-24T14:53:01.698Z,98266.13
2023-04-24T14:55:30.898Z,98271.03
2023-04-24T14:57:59.809Z,98268.13
2023-04-24T15:00:29.152Z,98268.22
2023-04-24T15:02:58.359Z,98269.59
2023-04-24T15:05:27.525Z,98273.88
2023-04-24T15:07:56.907Z,98281.81
2023-04-24T15:10:27.328Z,98274.88
2023-04-24T15:12:56.657Z,98276.22
2023-04-24T15:15:25.673Z,98278.69
2023-04-24T15:17:54.522Z,98274.22
2023-04-24T15:20:23.762Z,98290.34
2023-04-24T15:22:52.907Z,98281.25
2023-04-24T15:25:21.878Z,98286.91
2023-04-24T15:27:51.497Z,98288.25
2023-04-24T15:30:20.712Z,98284.91
2023-04-24T15:32:49.793Z,98289.94
2023-04-24T15:35:19.664Z,98290.91
2023-04-24T15:37:48.813Z,98303.97
2023-04-24T15:40:17.890Z,98298.25
2023-04-24T15:42:47.998Z,98291.84
2023-04-24T15:45:17.208Z,98296.44
2023-04-24T15:47:50.568Z,98293.31
2023-04-24T15:50:20.483Z,98303.41
2023-04-24T15:52:49.581Z,98295.25
2023-04-24T15:55:18.822Z,98299.69
2023-04-24T15:57:47.938Z,98299.69
2023-04-24T16:00:17.479Z,98292.59
2023-04-24T16:02:47.254Z,98295.50
2023-04-24T16:05:16.319Z,98300.78
2023-04-24T16:07:45.831Z,98302.00
2023-04-24T16:10:15.808Z,98307.97
2023-04-24T16:12:45.177Z,98306.06
2023-04-24T16:15:14.271Z,98298.97
2023-04-24T16:17:43.260Z,98307.75
2023-04-24T16:20:14.751Z,98303.16
2023-04-24T16:22:43.804Z,98308.13
2023-04-24T16:25:13.326Z,98307.19
2023-04-24T16:27:42.652Z,98308.53
2023-04-24T16:30:12.300Z,98298.19
2023-04-24T16:32:41.933Z,98303.25
2023-04-24T16:35:11.193Z,98302.03
2023-04-24T16:37:40.292Z,98303.94
2023-04-24T16:40:11.890Z,98301.44
2023-04-24T16:42:41.456Z,98298.47
2023-04-24T16:45:10.914Z,98299.41
2023-04-24T16:47:40.344Z,98298.22
2023-04-24T16:50:09.430Z,98295.47
2023-04-24T16:52:40.000Z,98303.03
2023-04-24T16:55:10.348Z,98296.81
2023-04-24T16:57:39.719Z,98296.03
2023-04-24T17:00:09.902Z,98295.31
2023-04-24T17:02:38.938Z,98299.31
2023-04-24T17:05:08.643Z,98299.91
2023-04-24T17:07:38.312Z,98298.22
2023-04-24T17:10:09.952Z,98303.63
2023-04-24T17:12:39.207Z,98302.50
2023-04-24T17:15:08.697Z,98299.06
2023-04-24T17:17:37.899Z,98298.47
2023-04-24T17:20:18.728Z,98296.75
2023-04-24T17:22:51.855Z,98298.00
2023-04-24T17:25:22.325Z,98300.97
2023-04-24T17:27:51.480Z,98301.31
2023-04-24T17:30:20.376Z,98303.16
2023-04-24T17:32:49.599Z,98290.91
2023-04-24T17:35:18.974Z,98294.63
2023-04-24T17:37:49.012Z,98296.75
2023-04-24T17:40:19.083Z,98300.34
2023-04-24T17:42:48.270Z,98297.09
2023-04-24T17:45:17.385Z,98303.91
2023-04-24T17:47:46.906Z,98307.13
2023-04-24T17:50:16.814Z,98305.06
2023-04-24T17:52:45.817Z,98306.03
2023-04-24T17:55:15.292Z,98308.78
2023-04-24T17:57:44.674Z,98311.28
2023-04-24T18:00:14.804Z,98309.03
2023-04-24T18:02:43.810Z,98313.50
2023-04-24T18:05:12.962Z,98300.88
2023-04-24T18:07:42.174Z,98308.66
2023-04-24T18:10:11.290Z,98304.47
2023-04-24T18:12:40.593Z,98307.09
2023-04-24T18:15:16.364Z,98306.47
2023-04-24T18:17:45.971Z,98301.88
2023-04-24T18:20:18.230Z,98304.22
2023-04-24T18:22:48.143Z,98305.94
2023-04-24T18:25:17.661Z,98304.84
2023-04-24T18:27:46.519Z,98301.09
2023-04-24T18:30:16.327Z,98308.41
2023-04-24T18:32:45.301Z,98309.22
2023-04-24T18:35:14.314Z,98304.75
2023-04-24T18:37:43.409Z,98308.22
2023-04-24T18:40:12.776Z,98309.41
2023-04-24T18:42:42.393Z,98299.81
2023-04-24T18:45:14.691Z,98307.00
2023-04-24T18:47:45.231Z,98297.63
2023-04-24T18:50:15.732Z,98299.44
2023-04-24T18:52:44.858Z,98289.44
2023-04-24T18:55:13.942Z,98295.25
2023-04-24T18:57:42.972Z,98286.63
2023-04-24T19:00:12.418Z,98286.72
2023-04-24T19:02:41.914Z,98288.94
2023-04-24T19:05:12.600Z,98289.16
2023-04-24T19:07:43.366Z,98285.16
2023-04-24T19:10:12.869Z,98283.91
2023-04-24T19:12:41.825Z,98287.03
2023-04-24T19:15:14.646Z,98286.22
2023-04-24T19:17:43.721Z,98292.97
2023-04-24T19:20:13.016Z,98289.91
2023-04-24T19:22:42.346Z,98284.00
2023-04-24T19:25:11.374Z,98283.19
2023-04-24T19:27:40.851Z,98283.06
2023-04-24T19:30:10.516Z,98271.69
2023-04-24T19:32:39.662Z,98284.00
2023-04-24T19:35:09.281Z,98279.06
2023-04-24T19:37:38.554Z,98275.69
2023-04-24T19:40:08.990Z,98279.28
2023-04-24T19:42:43.746Z,98277.19
2023-04-24T19:45:13.992Z,98278.03
2023-04-24T19:47:44.189Z,98278.44
2023-04-24T19:50:16.027Z,98275.28
2023-04-24T19:52:45.110Z,98270.00
2023-04-24T19:55:13.953Z,98284.06
2023-04-24T19:57:43.697Z,98266.28
2023-04-24T20:00:13.406Z,98268.47
2023-04-24T20:02:43.329Z,98275.63
2023-04-24T20:05:13.293Z,98271.19
2023-04-24T20:07:43.431Z,98277.28
2023-04-24T20:10:14.250Z,98271.81
2023-04-24T20:12:46.583Z,98262.91
2023-04-24T20:15:19.671Z,98267.19
2023-04-24T20:17:52.069Z,98263.13
2023-04-24T20:20:25.044Z,98271.31
2023-04-24T20:22:58.669Z,98264.47
2023-04-24T20:25:32.234Z,98255.94
2023-04-24T20:28:05.355Z,98263.28
2023-04-24T20:30:38.472Z,98254.94
2023-04-24T20:33:12.158Z,98257.28
2023-04-24T20:35:45.609Z,98256.44
2023-04-24T20:38:20.606Z,98267.06
2023-04-24T20:40:58.054Z,98264.53
2023-04-24T20:43:31.251Z,98262.75
2023-04-24T20:46:04.787Z,98269.13
2023-04-24T20:48:39.543Z,98264.53
2023-04-24T20:51:12.683Z,98270.63
2023-04-24T20:53:46.429Z,98265.47
2023-04-24T20:56:23.452Z,98267.34
2023-04-24T20:58:57.502Z,98270.16
2023-04-24T21:01:31.917Z,98270.25
2023-04-24T21:04:06.160Z,98273.00
2023-04-24T21:06:38.166Z,98282.09
2023-04-24T21:09:12.367Z,98276.09
2023-04-24T21:11:46.611Z,98279.59
2023-04-24T21:14:19.869Z,98282.59
2023-04-24T21:16:52.928Z,98280.72
2023-04-24T21:19:25.529Z,98276.91
2023-04-24T21:21:58.524Z,98271.53
2023-04-24T21:24:31.074Z,98271.00
2023-04-24T21:27:03.676Z,98265.69
2023-04-24T21:29:37.912Z,98260.13
2023-04-24T21:32:11.219Z,98258.97
2023-04-24T21:34:44.387Z,98260.56
2023-04-24T21:37:19.660Z,98254.00
2023-04-24T21:39:52.278Z,98257.75
2023-04-24T21:42:25.937Z,98258.69
2023-04-24T21:44:58.566Z,98263.75
2023-04-24T21:47:32.162Z,98259.25
2023-04-24T21:50:05.311Z,98256.56
2023-04-24T21:52:38.523Z,98256.06
2023-04-24T21:55:11.589Z,98254.56
2023-04-24T21:57:44.053Z,98259.28
2023-04-24T22:00:17.751Z,98260.94
2023-04-24T22:02:50.766Z,98261.44
2023-04-24T22:05:22.833Z,98263.88
2023-04-24T22:07:56.374Z,98254.81
2023-04-24T22:10:30.124Z,98262.88
2023-04-24T22:13:03.550Z,98265.00
2023-04-24T22:15:37.302Z,98252.53
2023-04-24T22:18:11.975Z,98256.38
2023-04-24T22:20:45.082Z,98262.66
2023-04-24T22:23:19.758Z,98267.97
2023-04-24T22:25:52.362Z,98272.50
2023-04-24T22:28:24.824Z,98300.69
2023-04-24T22:30:58.073Z,98304.25
2023-04-24T22:33:31.712Z,98309.91
2023-04-24T22:36:05.282Z,98306.50
2023-04-24T22:38:37.889Z,98315.63
2023-04-24T22:41:10.337Z,98304.16
2023-04-24T22:43:43.452Z,98313.59
2023-04-24T22:46:15.835Z,98315.84
2023-04-24T22:48:51.229Z,98327.06
2023-04-24T22:51:30.039Z,98329.00
2023-04-24T22:54:10.035Z,98326.47
2023-04-24T22:56:43.814Z,98334.56
2023-04-24T22:59:16.971Z,98333.22
2023-04-24T23:01:50.564Z,98342.44
2023-04-24T23:04:23.784Z,98343.75
2023-04-24T23:06:57.748Z,98340.34
2023-04-24T23:09:30.282Z,98344.16
2023-04-24T23:12:00.231Z,98342.63
2023-04-24T23:14:29.644Z,98347.41
2023-04-24T23:16:59.536Z,98352.50
2023-04-24T23:19:29.079Z,98363.13
2023-04-24T23:21:58.161Z,98366.00
2023-04-24T23:24:27.701Z,98368.34
2023-04-24T23:26:57.224Z,98368.81
2023-04-24T23:29:27.170Z,98374.06
2023-04-24T23:31:56.549Z,98374.19
2023-04-24T23:34:26.248Z,98367.09
2023-04-24T23:36:55.236Z,98375.19
2023-04-24T23:39:24.579Z,98389.84
2023-04-24T23:41:54.548Z,98385.16
2023-04-24T23:44:24.299Z,98392.41
2023-04-24T23:46:53.197Z,98389.31
2023-04-24T23:49:23.475Z,98395.63
2023-04-24T23:51:53.316Z,98400.28
2023-04-24T23:54:23.029Z,98395.84
2023-04-24T23:56:51.871Z,98397.41
2023-04-24T23:59:22.702Z,98397.06
